NCAR-RAP Real-Time Weather Data

Output produced by METARs form (08 May 2021  17:21 UTC)
found at http://weather.rap.ucar.edu/surface/
 
KNYC 081651Z AUTO VRB04KT 6SM -RA OVC032 11/06 A2988 RMK AO2 RAB40 SLP110 P0000 T01060056 $
KNYC 081633Z AUTO VRB04KT 10SM OVC031 11/04 A2987 RMK AO2 T01110044 $
KNYC 081551Z AUTO 08008G15KT 040V120 10SM BKN029 OVC036 12/05 A2987 RMK AO2 SLP108 T01220050 $
KNYC 081451Z AUTO VRB05KT 10SM FEW020 BKN080 OVC095 11/07 A2989 RMK AO2 SLP113 60001 T01110067 51007 $
KNYC 081351Z AUTO 08006KT 10SM FEW032 SCT049 OVC060 10/07 A2989 RMK AO2 RAE48 SLP112 P0001 T01000067 $
KNYC 081251Z AUTO 08005KT 10SM -RA BKN034 OVC065 11/05 A2987 RMK AO2 RAB12E29B46 SLP108 P0000 T01110050 $
KNYC 081151Z AUTO 00000KT 10SM FEW070 BKN090 OVC110 12/05 A2987 RMK AO2 SLP104 T01170050 10117 20100 53010 $
KNYC 081051Z AUTO 00000KT 10SM OVC070 11/04 A2985 RMK AO2 SLP102 T01060044 $
KNYC 080951Z AUTO 00000KT 10SM OVC070 11/02 A2984 RMK AO2 SLP095 T01060017 $
KNYC 080851Z AUTO 00000KT 10SM OVC090 10/02 A2984 RMK AO2 SLP094 T01000022 56014 $
KNYC 080751Z AUTO 10SM OVC095 11/01 A2985 RMK AO2 SLP099 T01110011 $
KNYC 080651Z AUTO 00000KT 10SM OVC095 11/02 A2986 RMK AO2 SLP103 T01110022 $
KNYC 080551Z AUTO 10SM OVC090 11/02 A2988 RMK AO2 SLP108 T01110022 10133 20111 58010 $
KNYC 080451Z AUTO 13006KT 10SM CLR 11/02 A2989 RMK AO2 SLP113 T01110017 401890094 $
KNYC 080351Z AUTO VRB05KT 10SM OVC100 12/02 A2990 RMK AO2 SLP115 T01170022 $
KNYC 080251Z AUTO 00000KT 10SM OVC080 12/04 A2991 RMK AO2 SLP118 T01220039 53009 $
KNYC 080151Z AUTO VRB05KT 10SM CLR 12/05 A2990 RMK AO2 SLP116 T01220050 $
KNYC 080051Z AUTO 14007G16KT 10SM BKN120 13/05 A2989 RMK AO2 SLP112 T01280050 $
KNYC 072351Z AUTO VRB06KT 10SM CLR 13/06 A2988 RMK AO2 SLP110 T01330056 10189 20133 53002 $
KNYC 072251Z AUTO 00000KT 10SM CLR 14/06 A2988 RMK AO2 SLP108 T01390061 $
KNYC 072151Z AUTO VRB04KT 10SM CLR 15/06 A2988 RMK AO2 SLP108 T01500056 $
KNYC 072051Z AUTO VRB06KT 10SM SCT070 16/03 A2987 RMK AO2 SLP107 T01610028 55006 $
KNYC 071951Z AUTO 09007KT 10SM CLR 17/03 A2987 RMK AO2 SLP106 T01720033 $
KNYC 071851Z AUTO VRB05KT 10SM CLR 18/02 A2988 RMK AO2 SLP108 T01780017 A
KNYC 071751Z AUTO VRB04KT 10SM CLR 18/02 A2989 RMK AO2 SLP113 T01780017 10183 20117 56021
KNYC 071651Z AUTO VRB04KT 10SM CLR 18/01 A2991 RMK AO2 SLP118 T01780011 $
KNYC 071551Z AUTO 10SM CLR 18/01 A2993 RMK AO2 SLP127 T01780006 $
KNYC 071451Z AUTO VRB05KT 10SM CLR 16/01 A2995 RMK AO2 SLP134 T01560006 55000 $
KNYC 071351Z VRB03KT 10SM CLR 14/01 A2995 RMK AO2 SLP133 T01440011 $
KNYC 071251Z 10SM CLR 13/00 A2995 RMK AO2 SLP134 T01330000 $
KNYC 071151Z 07007KT 10SM CLR 12/M01 A2996 RMK AO2 SLP135 T01171006 10128 20094 53000 $
KNYC 071051Z VRB04KT 10SM CLR 11/M01 A2995 RMK AO2 SLP133 T01111006 $
KNYC 070951Z 03004KT 10SM CLR 10/M01 A2995 RMK AO2 SLP132 T01001006 $
KNYC 070851Z 01003KT 10SM BKN120 11/M01 A2995 RMK AO2 SLP134 T01111011 57005 $
KNYC 070751Z VRB05KT 10SM CLR 12/M02 A2996 RMK AO2 SLP136 T01171022 $
KNYC 070651Z 00000KT 10SM CLR 12/M03 A2996 RMK AO2 SLP138 T01171033 $
KNYC 070551Z 00000KT 10SM CLR 13/M05 A2997 RMK AO2 SLP139 T01281050 10167 20128 58005 $
KNYC 070451Z AUTO VRB03KT 10SM CLR 13/M04 A2998 RMK AO2 SLP144 T01281039 401890100 $
KNYC 070351Z AUTO 00000KT 10SM CLR 14/M03 A2999 RMK AO2 SLP145 T01391028 $
KNYC 070251Z AUTO VRB04KT 10SM CLR 14/M03 A2999 RMK AO2 SLP145 T01441028 51018 $
KNYC 070151Z AUTO VRB04KT 10SM CLR 16/M03 A2998 RMK AO2 SLP141 T01561033 $
KNYC 070051Z AUTO VRB03KT 10SM CLR 16/M02 A2995 RMK AO2 SLP134 T01611022 $
KNYC 062351Z AUTO VRB05KT 10SM CLR 17/M02 A2993 RMK AO2 SLP127 T01671017 10189 20167 53009 $
KNYC 062251Z AUTO 00000KT 10SM CLR 17/M01 A2992 RMK AO2 SLP121 T01721011 $
KNYC 062151Z AUTO 32007KT 10SM CLR 18/M02 A2991 RMK AO2 SLP120 T01781022 $
KNYC 062112Z AUTO VRB03KT 10SM CLR 18/M01 A2991 RMK AO2 T01781011 $
KNYC 062104Z AUTO VRB04KT 1 1/4SM HZ CLR 18/M01 A2991 RMK AO2 T01831011 $
KNYC 062051Z AUTO VRB06KT 10SM CLR 18/M01 A2991 RMK AO2 SLP118 T01831006
KNYC 061951Z AUTO VRB05KT 10SM CLR 19/01 A2991 RMK AO2 SLP120 T01890006
KNYC 061851Z AUTO VRB03KT 10SM CLR 19/01 A2993 RMK AO2 SLP125 T01890006
KNYC 061751Z AUTO VRB06KT 10SM CLR 18/00 A2994 RMK AO2 SLP129 T01780000 10183 20111 58017 $